Time;durP1;ratioP1;P1;durP2;ratioP2;P2;SDS_P1;SDS_P2;PMS_P1;PMS_P2;Temp;Humidity;BMP_temperature;BMP_pressure;BME280_temperature;BME280_humidity;BME280_pressure;Samples;Min_cycle;Max_cycle;Signal;HPM_P1;HPM_P2
2022/06/28 00:00:25;;;;;;;8.55;3.75;;;18.30;99.90;;;;;;5093010;28;20031;-53
2022/06/28 00:02:51;;;;;;;3.45;3.20;;;18.30;99.90;;;;;;5092954;28;20032;-54
2022/06/28 00:05:21;;;;;;;3.70;2.92;;;18.30;99.90;;;;;;5091571;28;20049;-52
2022/06/28 00:07:46;;;;;;;4.32;3.20;;;18.30;99.90;;;;;;5092950;28;20020;-53
2022/06/28 00:10:15;;;;;;;6.63;3.63;;;18.30;99.90;;;;;;5092841;28;20383;-54
2022/06/28 00:12:41;;;;;;;6.70;3.00;;;18.30;99.90;;;;;;5092961;28;20023;-53
2022/06/28 00:18:11;;;;;;;3.83;3.08;;;18.40;99.90;;;;;;5050041;28;20044;-52
2022/06/28 00:20:36;;;;;;;7.38;3.40;;;18.30;99.90;;;;;;5083480;28;20028;-54
2022/06/28 00:23:03;;;;;;;3.58;3.13;;;18.10;99.90;;;;;;5092747;28;20058;-52
2022/06/28 00:25:29;;;;;;;5.60;3.90;;;18.10;99.90;;;;;;5092569;28;20016;-50
2022/06/28 00:27:54;;;;;;;7.88;3.80;;;18.10;99.90;;;;;;5092546;28;20047;-52
2022/06/28 00:30:20;;;;;;;5.15;3.90;;;18.00;99.90;;;;;;5092539;28;20028;-52
2022/06/28 00:32:46;;;;;;;5.82;3.88;;;18.00;99.90;;;;;;5092466;28;20387;-53
2022/06/28 00:35:11;;;;;;;5.22;3.40;;;18.00;99.90;;;;;;5092301;28;20024;-52
2022/06/28 00:37:37;;;;;;;6.05;3.13;;;18.00;99.90;;;;;;5092432;28;20099;-51
2022/06/28 00:40:03;;;;;;;5.60;4.07;;;18.00;99.90;;;;;;5091285;28;20503;-51
2022/06/28 00:42:29;;;;;;;3.63;3.20;;;18.10;99.90;;;;;;5092033;28;20395;-54
2022/06/28 00:44:57;;;;;;;5.40;3.60;;;18.10;99.90;;;;;;5092326;28;20024;-52
2022/06/28 00:47:24;;;;;;;5.65;3.88;;;18.20;99.90;;;;;;5091951;28;20024;-52
2022/06/28 00:49:49;;;;;;;4.15;3.40;;;18.20;99.90;;;;;;5092224;28;20471;-54
2022/06/28 00:52:16;;;;;;;3.60;3.28;;;18.20;99.90;;;;;;5092119;28;20077;-52
2022/06/28 00:54:41;;;;;;;3.60;3.25;;;18.20;99.90;;;;;;5092203;28;20444;-51
2022/06/28 00:57:07;;;;;;;3.53;3.25;;;18.20;99.90;;;;;;5090854;28;20052;-52
2022/06/28 00:59:34;;;;;;;13.50;3.85;;;17.90;99.90;;;;;;5091805;28;20104;-51
2022/06/28 01:02:00;;;;;;;13.27;5.20;;;17.90;99.90;;;;;;5092021;28;20049;-51
2022/06/28 01:04:27;;;;;;;6.20;5.30;;;17.80;99.90;;;;;;5091488;28;20035;-51
2022/06/28 01:06:54;;;;;;;8.38;5.43;;;17.80;99.90;;;;;;5092012;28;20076;-51
2022/06/28 01:09:20;;;;;;;7.65;5.72;;;17.80;99.90;;;;;;5090411;28;20028;-52
2022/06/28 01:11:46;;;;;;;8.85;5.45;;;18.00;99.90;;;;;;5091937;28;20479;-50
2022/06/28 01:14:12;;;;;;;6.65;5.22;;;18.20;99.90;;;;;;5091676;28;20049;-53
2022/06/28 01:16:38;;;;;;;5.70;4.80;;;18.20;99.90;;;;;;5091525;28;20024;-55
2022/06/28 01:19:08;;;;;;;5.22;4.72;;;18.20;99.90;;;;;;5091634;28;20022;-51
2022/06/28 01:21:36;;;;;;;6.28;4.82;;;18.20;99.90;;;;;;5090141;28;20020;-53
2022/06/28 01:24:02;;;;;;;5.47;4.07;;;18.20;99.90;;;;;;5091595;28;20024;-52
2022/06/28 01:26:30;;;;;;;4.85;3.45;;;18.20;99.90;;;;;;5091648;28;20024;-53
2022/06/28 01:28:56;;;;;;;3.97;3.67;;;18.20;99.90;;;;;;5091124;28;20014;-53
2022/06/28 01:31:23;;;;;;;4.80;3.72;;;18.20;99.90;;;;;;5091350;28;20020;-53
2022/06/28 01:33:51;;;;;;;4.95;2.97;;;18.20;99.90;;;;;;5090140;28;20666;-55
2022/06/28 01:36:17;;;;;;;3.95;3.13;;;18.20;99.90;;;;;;5091498;28;20027;-53
2022/06/28 01:38:43;;;;;;;3.75;3.45;;;18.20;99.90;;;;;;5091231;28;20128;-53
2022/06/28 01:41:32;;;;;;;3.67;3.00;;;18.30;99.90;;;;;;5091035;28;20126;-51
2022/06/28 01:43:55;;;;;;;3.85;3.15;;;18.30;99.90;;;;;;5091134;28;20093;-51
2022/06/28 01:46:21;;;;;;;3.67;3.38;;;18.40;99.90;;;;;;5091047;28;20479;-51
2022/06/28 01:48:46;;;;;;;3.97;2.97;;;18.40;99.90;;;;;;5091079;28;20028;-55
2022/06/28 01:51:12;;;;;;;5.20;3.30;;;18.40;99.90;;;;;;5090907;28;20103;-55
2022/06/28 01:53:38;;;;;;;4.97;3.53;;;18.40;99.90;;;;;;5091087;28;21904;-51
2022/06/28 01:56:04;;;;;;;5.30;2.47;;;18.40;99.90;;;;;;5090014;28;20429;-53
2022/06/28 01:58:29;;;;;;;3.85;2.90;;;18.40;99.90;;;;;;5091019;28;20074;-52
2022/06/28 02:00:56;;;;;;;4.05;3.20;;;18.50;99.90;;;;;;5089572;28;20036;-52
2022/06/28 02:03:22;;;;;;;3.28;3.00;;;18.50;99.90;;;;;;5090762;28;20035;-53
2022/06/28 02:05:47;;;;;;;4.15;3.08;;;18.50;99.90;;;;;;5090879;28;20020;-51
2022/06/28 02:08:13;;;;;;;4.43;3.47;;;18.40;99.90;;;;;;5090420;28;20399;-53
2022/06/28 02:10:39;;;;;;;5.85;3.55;;;18.40;99.90;;;;;;5090937;28;20149;-51
2022/06/28 02:13:04;;;;;;;7.25;3.38;;;18.30;99.90;;;;;;5090778;28;20020;-54
2022/06/28 02:15:30;;;;;;;6.95;3.05;;;18.30;99.90;;;;;;5090590;28;20044;-53
2022/06/28 02:17:59;;;;;;;4.28;3.90;;;18.50;99.90;;;;;;5090784;28;20104;-56
2022/06/28 02:20:26;;;;;;;3.70;3.38;;;18.50;99.90;;;;;;5090476;28;20023;-51
2022/06/28 02:22:52;;;;;;;4.53;4.13;;;18.50;99.90;;;;;;5089171;28;20031;-55
2022/06/28 02:25:17;;;;;;;5.05;4.55;;;18.50;99.90;;;;;;5089246;28;20028;-51
2022/06/28 02:27:43;;;;;;;5.15;3.45;;;18.40;99.90;;;;;;5090773;28;20027;-54
2022/06/28 02:30:10;;;;;;;6.22;4.30;;;18.40;99.90;;;;;;5090573;28;20050;-51
2022/06/28 02:32:36;;;;;;;4.25;3.85;;;18.40;99.90;;;;;;5090392;28;20020;-54
2022/06/28 02:40:31;;;;;;;4.72;3.67;;;18.30;99.90;;;;;;5090348;28;20539;-52
2022/06/28 02:43:00;;;;;;;5.90;3.95;;;18.20;99.90;;;;;;5090341;28;20051;-52
2022/06/28 02:45:35;;;;;;;4.88;3.92;;;18.10;99.90;;;;;;5090315;28;20078;-52
2022/06/28 02:48:02;;;;;;;3.95;3.65;;;18.10;99.90;;;;;;5090534;28;20039;-53
2022/06/28 02:50:28;;;;;;;7.88;3.58;;;18.20;99.90;;;;;;5090118;28;20032;-50
2022/06/28 02:52:54;;;;;;;7.10;4.10;;;18.20;99.90;;;;;;5090214;28;20039;-52
2022/06/28 02:55:20;;;;;;;4.82;3.75;;;18.20;99.90;;;;;;5090273;28;20020;-53
2022/06/28 02:57:45;;;;;;;3.88;3.47;;;18.20;99.90;;;;;;5090219;28;20028;-50
2022/06/28 03:00:17;;;;;;;3.78;3.22;;;18.20;99.90;;;;;;5090176;28;20039;-53
2022/06/28 03:02:44;;;;;;;4.72;3.10;;;18.20;99.90;;;;;;5090351;28;20046;-51
2022/06/28 03:05:13;;;;;;;3.70;3.30;;;18.30;99.90;;;;;;5090339;28;20128;-51
2022/06/28 03:07:39;;;;;;;3.20;3.00;;;18.20;99.90;;;;;;5088658;28;20448;-52
2022/06/28 03:10:07;;;;;;;3.50;3.20;;;18.20;99.90;;;;;;5090259;28;20032;-52
2022/06/28 03:12:33;;;;;;;4.57;3.33;;;18.20;99.90;;;;;;5089738;28;20027;-51
2022/06/28 03:14:59;;;;;;;4.97;2.90;;;18.20;99.90;;;;;;5090117;28;20073;-52
2022/06/28 03:17:25;;;;;;;8.10;3.42;;;18.10;99.90;;;;;;5088712;28;20031;-51
2022/06/28 03:19:51;;;;;;;2.50;2.40;;;18.10;99.90;;;;;;5090189;28;20035;-51
2022/06/28 03:22:17;;;;;;;3.67;2.40;;;18.20;99.90;;;;;;5093377;28;20379;-55
2022/06/28 03:24:43;;;;;;;3.75;2.92;;;18.20;99.90;;;;;;5092495;28;20378;-50
2022/06/28 03:27:08;;;;;;;3.05;2.75;;;18.20;99.90;;;;;;5093907;28;20027;-50
2022/06/28 03:29:34;;;;;;;2.65;2.45;;;18.20;99.90;;;;;;5093533;28;20474;-51
2022/06/28 03:32:00;;;;;;;6.35;3.30;;;18.10;99.90;;;;;;5093867;28;20399;-51
2022/06/28 03:34:26;;;;;;;3.03;2.83;;;18.00;99.90;;;;;;5093602;28;20032;-53
2022/06/28 03:36:51;;;;;;;3.38;2.67;;;18.00;99.90;;;;;;5093718;28;20494;-52
2022/06/28 03:39:17;;;;;;;8.35;3.92;;;17.90;99.90;;;;;;5093371;28;20036;-53
2022/06/28 03:41:43;;;;;;;4.05;3.08;;;17.90;99.90;;;;;;5093234;28;20149;-52
2022/06/28 03:44:09;;;;;;;11.43;3.92;;;17.90;99.90;;;;;;5093509;28;20153;-53
2022/06/28 03:46:34;;;;;;;6.60;3.72;;;17.90;99.90;;;;;;5092126;28;20066;-53
2022/06/28 03:49:00;;;;;;;6.18;3.55;;;17.80;99.90;;;;;;5093561;28;20020;-52
2022/06/28 03:51:26;;;;;;;4.00;3.70;;;17.80;99.90;;;;;;5093319;28;20495;-51
2022/06/28 03:53:52;;;;;;;4.38;3.58;;;17.70;99.90;;;;;;5093331;28;20032;-51
2022/06/28 03:56:17;;;;;;;10.52;4.00;;;17.70;99.90;;;;;;5093042;28;20073;-50
2022/06/28 03:58:43;;;;;;;5.75;4.15;;;17.80;99.90;;;;;;5093038;28;20055;-51
2022/06/28 04:01:09;;;;;;;4.05;3.75;;;17.80;99.90;;;;;;5091852;28;20024;-53
2022/06/28 04:03:35;;;;;;;9.60;4.30;;;17.70;99.90;;;;;;5091628;28;20016;-51
2022/06/28 04:06:01;;;;;;;4.65;4.20;;;17.70;99.90;;;;;;5093189;28;20024;-54
2022/06/28 04:08:27;;;;;;;5.75;4.22;;;17.70;99.90;;;;;;5092896;28;20433;-52
2022/06/28 04:11:13;;;;;;;6.80;4.22;;;17.60;99.90;;;;;;5093086;28;20031;-51
2022/06/28 04:13:39;;;;;;;6.55;3.92;;;17.60;99.90;;;;;;5092880;28;20028;-51
2022/06/28 04:16:05;;;;;;;5.28;4.43;;;17.70;99.90;;;;;;5093024;28;20402;-53
2022/06/28 04:18:31;;;;;;;5.32;3.88;;;17.70;99.90;;;;;;5092813;28;20097;-54
2022/06/28 04:20:57;;;;;;;9.85;5.13;;;17.70;99.90;;;;;;5092856;28;20414;-55
2022/06/28 04:23:23;;;;;;;4.80;4.40;;;17.80;99.90;;;;;;5092458;28;20479;-50
2022/06/28 04:25:49;;;;;;;6.65;4.90;;;17.80;99.90;;;;;;5092436;28;20490;-52
2022/06/28 04:28:16;;;;;;;5.78;3.97;;;17.90;99.90;;;;;;5092531;28;20016;-54
2022/06/28 04:30:41;;;;;;;5.57;4.70;;;18.00;99.90;;;;;;5092837;28;20458;-50
2022/06/28 04:33:07;;;;;;;8.45;5.13;;;18.00;99.90;;;;;;5092368;28;20047;-53
2022/06/28 04:35:33;;;;;;;6.07;5.47;;;18.00;99.90;;;;;;5092357;28;20036;-55
2022/06/28 04:37:59;;;;;;;7.22;5.07;;;18.00;99.90;;;;;;5092320;28;20028;-55
2022/06/28 04:40:25;;;;;;;9.27;5.25;;;18.10;99.90;;;;;;5091957;28;20043;-54
2022/06/28 04:42:50;;;;;;;6.82;6.00;;;18.10;99.90;;;;;;5091024;28;20024;-54
2022/06/28 04:45:16;;;;;;;9.98;5.40;;;18.10;99.90;;;;;;5091727;28;20028;-55
2022/06/28 04:47:42;;;;;;;8.13;5.13;;;18.10;99.90;;;;;;5092335;28;20027;-53
2022/06/28 04:50:08;;;;;;;10.13;5.65;;;18.20;99.90;;;;;;5092134;28;20095;-52
2022/06/28 04:52:34;;;;;;;14.23;6.55;;;18.30;99.90;;;;;;5090545;28;20034;-53
2022/06/28 04:55:00;;;;;;;11.15;5.57;;;18.40;99.90;;;;;;5092084;28;20416;-54
2022/06/28 04:57:26;;;;;;;6.20;5.60;;;18.40;99.90;;;;;;5091904;28;20123;-55
2022/06/28 04:59:52;;;;;;;5.45;4.95;;;18.30;99.90;;;;;;5091998;28;20537;-50
2022/06/28 05:02:18;;;;;;;8.80;6.55;;;18.40;99.90;;;;;;5091849;28;20016;-51
2022/06/28 05:04:43;;;;;;;8.13;5.78;;;18.50;99.90;;;;;;5091943;28;20095;-53
2022/06/28 05:07:09;;;;;;;6.70;5.85;;;18.50;99.90;;;;;;5091676;28;20517;-54
2022/06/28 05:09:34;;;;;;;5.50;5.00;;;18.60;99.90;;;;;;5091516;28;20028;-52
2022/06/28 05:12:00;;;;;;;7.28;4.90;;;18.60;99.90;;;;;;5091689;28;20048;-54
2022/06/28 05:14:26;;;;;;;7.97;5.53;;;18.60;99.90;;;;;;5091696;28;20024;-51
2022/06/28 05:16:53;;;;;;;11.20;5.75;;;18.70;99.90;;;;;;5091708;28;20100;-52
2022/06/28 05:19:40;;;;;;;8.40;4.68;;;18.70;99.90;;;;;;5091515;28;20405;-54
2022/06/28 05:22:08;;;;;;;6.78;5.05;;;18.80;99.90;;;;;;5091719;28;20025;-51
2022/06/28 05:24:33;;;;;;;7.13;4.72;;;18.90;99.90;;;;;;5091429;28;20077;-51
2022/06/28 05:26:59;;;;;;;5.68;3.95;;;19.00;99.90;;;;;;5091549;28;20277;-51
2022/06/28 05:29:25;;;;;;;4.30;3.90;;;19.20;99.90;;;;;;5091159;28;20526;-54
2022/06/28 05:31:51;;;;;;;7.65;4.05;;;19.30;99.90;;;;;;5090116;28;20019;-54
2022/06/28 05:34:16;;;;;;;9.85;4.07;;;19.20;99.90;;;;;;5091116;28;20063;-55
2022/06/28 05:36:43;;;;;;;6.40;4.30;;;19.30;99.90;;;;;;5090080;28;20050;-55
2022/06/28 05:39:09;;;;;;;5.80;4.25;;;19.50;99.90;;;;;;5092356;28;20020;-54
2022/06/28 05:41:35;;;;;;;5.55;3.80;;;19.50;99.90;;;;;;5092065;28;20499;-54
2022/06/28 05:44:01;;;;;;;4.43;3.53;;;19.50;99.90;;;;;;5091833;28;20028;-54
2022/06/28 05:46:28;;;;;;;6.25;3.65;;;19.80;99.90;;;;;;5091957;28;20051;-55
2022/06/28 05:48:54;;;;;;;3.97;3.30;;;19.90;99.90;;;;;;5091952;28;20393;-54
2022/06/28 05:51:20;;;;;;;3.97;2.72;;;20.10;99.90;;;;;;5092062;28;20016;-55
2022/06/28 05:53:45;;;;;;;6.15;2.80;;;20.20;99.90;;;;;;5090793;28;20491;-56
2022/06/28 05:56:11;;;;;;;3.97;3.03;;;20.10;99.90;;;;;;5091838;28;20081;-51
2022/06/28 05:58:37;;;;;;;5.65;3.15;;;20.10;99.90;;;;;;5091586;28;20023;-56
2022/06/28 06:01:03;;;;;;;2.80;2.60;;;20.30;99.90;;;;;;5091775;28;20080;-56
2022/06/28 06:03:30;;;;;;;3.00;2.80;;;20.20;99.90;;;;;;5091904;28;20020;-56
2022/06/28 06:05:56;;;;;;;5.07;3.10;;;20.10;99.90;;;;;;5091781;28;20021;-55
2022/06/28 06:08:21;;;;;;;8.68;3.28;;;20.30;99.90;;;;;;5092013;28;20065;-55
2022/06/28 06:10:47;;;;;;;3.70;3.17;;;19.90;99.90;;;;;;5091947;28;20104;-59
2022/06/28 06:13:13;;;;;;;4.15;3.13;;;19.60;99.90;;;;;;5091884;28;20020;-55
2022/06/28 06:15:39;;;;;;;3.35;3.05;;;19.60;99.90;;;;;;5091637;28;20052;-55
2022/06/28 06:18:04;;;;;;;5.35;3.53;;;19.60;99.90;;;;;;5091842;28;20027;-56
2022/06/28 06:20:30;;;;;;;10.57;3.25;;;19.60;99.90;;;;;;5091434;28;20032;-55
2022/06/28 06:22:56;;;;;;;6.15;3.38;;;19.60;99.90;;;;;;5090355;28;20020;-57
2022/06/28 06:25:22;;;;;;;4.85;3.60;;;19.80;99.90;;;;;;5091510;28;20016;-55
2022/06/28 06:27:48;;;;;;;5.35;3.45;;;19.60;99.90;;;;;;5091599;28;20025;-55
2022/06/28 06:30:13;;;;;;;4.63;3.53;;;19.50;99.90;;;;;;5091135;28;20073;-54
2022/06/28 06:32:39;;;;;;;6.93;4.65;;;19.30;99.90;;;;;;5091205;28;20676;-56
2022/06/28 06:35:07;;;;;;;4.75;3.55;;;19.30;99.90;;;;;;5090915;28;20020;-56
2022/06/28 06:37:32;;;;;;;4.45;3.75;;;19.40;99.90;;;;;;5089948;28;20591;-56
2022/06/28 06:39:58;;;;;;;11.82;4.18;;;19.60;99.90;;;;;;5090885;28;20036;-54
2022/06/28 06:42:24;;;;;;;5.53;4.00;;;19.70;99.90;;;;;;5091235;28;20016;-56
2022/06/28 06:44:50;;;;;;;4.45;3.85;;;19.90;99.90;;;;;;5091258;28;20111;-56
2022/06/28 06:47:16;;;;;;;4.68;4.13;;;20.10;99.90;;;;;;5091272;28;20012;-56
2022/06/28 06:49:41;;;;;;;4.38;3.95;;;20.20;99.90;;;;;;5091258;28;20064;-56
2022/06/28 06:52:07;;;;;;;7.50;4.55;;;20.50;99.90;;;;;;5090901;28;20024;-55
2022/06/28 06:54:33;;;;;;;10.07;4.32;;;20.10;99.90;;;;;;5091204;28;20031;-56
2022/06/28 06:56:58;;;;;;;5.47;4.97;;;20.10;99.90;;;;;;5093103;28;20118;-56
2022/06/28 06:59:24;;;;;;;5.03;4.63;;;20.10;99.90;;;;;;5095072;28;20028;-55
2022/06/28 07:01:50;;;;;;;5.18;4.20;;;20.40;99.90;;;;;;5095467;28;20508;-55
2022/06/28 07:04:16;;;;;;;7.80;4.45;;;20.40;99.90;;;;;;5094915;28;20029;-56
2022/06/28 07:06:42;;;;;;;4.47;4.07;;;20.50;99.90;;;;;;5095175;28;20024;-52
2022/06/28 07:09:07;;;;;;;4.78;4.38;;;20.40;99.90;;;;;;5095264;28;20031;-56
2022/06/28 07:11:34;;;;;;;7.97;4.43;;;20.60;99.90;;;;;;5095024;28;20058;-56
2022/06/28 07:14:01;;;;;;;4.93;4.43;;;20.40;99.90;;;;;;5095174;28;20035;-53
2022/06/28 07:16:26;;;;;;;5.32;4.82;;;20.30;99.90;;;;;;5094570;28;20066;-56
2022/06/28 07:18:52;;;;;;;7.75;5.28;;;20.60;99.90;;;;;;5095204;28;20044;-56
2022/06/28 07:21:18;;;;;;;9.20;4.65;;;20.60;99.90;;;;;;5094767;28;20035;-56
2022/06/28 07:23:44;;;;;;;4.30;3.72;;;20.70;99.90;;;;;;5094923;28;20020;-55
2022/06/28 07:26:10;;;;;;;4.93;3.75;;;20.70;99.90;;;;;;5094988;28;20024;-56
2022/06/28 07:28:36;;;;;;;5.55;4.30;;;20.60;99.90;;;;;;5094813;28;20027;-56
2022/06/28 07:31:02;;;;;;;11.85;8.70;;;20.80;99.90;;;;;;5094620;28;20025;-55
2022/06/28 07:33:28;;;;;;;4.75;3.75;;;21.00;99.90;;;;;;5094497;28;20030;-56
2022/06/28 07:35:54;;;;;;;5.05;4.32;;;21.30;99.90;;;;;;5094818;28;20024;-55
2022/06/28 07:38:20;;;;;;;7.35;3.90;;;21.40;99.90;;;;;;5094744;28;20024;-56
2022/06/28 07:40:45;;;;;;;4.68;4.28;;;21.40;99.90;;;;;;5088577;28;20532;-56
2022/06/28 07:43:11;;;;;;;4.65;3.30;;;21.70;99.90;;;;;;5093572;28;20040;-55
2022/06/28 07:45:39;;;;;;;6.22;5.63;;;22.00;99.90;;;;;;5094385;28;20047;-57
2022/06/28 07:48:06;;;;;;;5.80;4.50;;;21.60;99.90;;;;;;5094640;28;20016;-57
2022/06/28 07:53:38;;;;;;;4.90;4.40;;;22.10;99.90;;;;;;5094351;28;20140;-56
2022/06/28 07:56:04;;;;;;;5.82;5.32;;;22.70;99.90;;;;;;5094098;28;20066;-57
2022/06/28 07:58:39;;;;;;;10.13;3.88;;;22.40;99.90;;;;;;5093973;28;20020;-55
2022/06/28 08:01:06;;;;;;;5.93;3.88;;;22.70;99.90;;;;;;5094186;28;20020;-57
2022/06/28 08:03:31;;;;;;;4.28;3.50;;;22.80;99.90;;;;;;5094158;28;20077;-55
2022/06/28 08:05:57;;;;;;;5.55;5.03;;;22.80;99.90;;;;;;5093977;28;20528;-56
2022/06/28 08:08:23;;;;;;;4.95;3.70;;;22.80;99.90;;;;;;5093570;28;20020;-54
2022/06/28 08:10:48;;;;;;;5.88;4.80;;;22.70;99.90;;;;;;5083052;28;20147;-55
2022/06/28 08:13:16;;;;;;;5.18;4.05;;;22.60;99.90;;;;;;5093811;28;20016;-56
2022/06/28 08:15:42;;;;;;;8.70;5.10;;;23.00;99.90;;;;;;5093930;28;20027;-55
2022/06/28 08:18:08;;;;;;;5.82;5.30;;;23.10;99.90;;;;;;5093694;28;20036;-56
2022/06/28 08:20:33;;;;;;;6.45;4.45;;;22.80;99.90;;;;;;5093745;28;20042;-54
2022/06/28 08:22:59;;;;;;;5.00;4.50;;;22.50;99.90;;;;;;5093945;28;20023;-56
2022/06/28 08:25:25;;;;;;;6.40;4.10;;;22.80;99.90;;;;;;5093659;28;20025;-56
2022/06/28 08:27:50;;;;;;;5.18;4.45;;;23.00;99.90;;;;;;5093054;28;20024;-57
2022/06/28 08:30:16;;;;;;;5.03;4.50;;;23.10;99.90;;;;;;5093617;28;20515;-57
2022/06/28 08:32:42;;;;;;;5.32;4.70;;;23.00;99.90;;;;;;5093800;28;20360;-57
2022/06/28 08:35:08;;;;;;;8.07;4.55;;;22.90;99.90;;;;;;5093401;28;20476;-55
2022/06/28 08:37:33;;;;;;;6.30;4.90;;;22.70;99.90;;;;;;5093481;28;20031;-57
2022/06/28 08:39:59;;;;;;;7.55;5.13;;;22.80;99.90;;;;;;5091977;28;20028;-54
2022/06/28 08:42:27;;;;;;;8.13;4.78;;;22.50;99.90;;;;;;5075363;28;20035;-56
2022/06/28 08:44:53;;;;;;;7.00;4.45;;;22.50;99.90;;;;;;5093255;28;20028;-56
2022/06/28 08:47:20;;;;;;;11.23;4.90;;;22.50;99.90;;;;;;5093386;28;20020;-56
2022/06/28 08:50:00;;;;;;;5.10;4.10;;;22.60;99.90;;;;;;5092042;28;20027;-55
2022/06/28 08:52:26;;;;;;;7.35;4.95;;;22.50;99.90;;;;;;5093320;28;20064;-57
2022/06/28 08:54:52;;;;;;;5.18;3.47;;;22.60;99.90;;;;;;5093267;28;20051;-57
2022/06/28 08:57:19;;;;;;;6.57;4.65;;;22.90;99.90;;;;;;5093414;28;20027;-56
2022/06/28 08:59:47;;;;;;;4.57;3.35;;;23.30;99.90;;;;;;5091604;28;20436;-56
2022/06/28 09:02:25;;;;;;;6.85;3.28;;;23.40;99.90;;;;;;5093138;28;20047;-56
2022/06/28 09:04:53;;;;;;;4.63;3.55;;;23.70;99.90;;;;;;5091386;28;20031;-57
2022/06/28 09:07:23;;;;;;;6.85;3.22;;;23.80;99.90;;;;;;5092938;28;20019;-55
2022/06/28 09:09:49;;;;;;;6.60;4.18;;;24.10;99.90;;;;;;5092929;28;20024;-56
2022/06/28 09:12:16;;;;;;;4.30;3.13;;;24.20;99.90;;;;;;5093035;28;20059;-56
2022/06/28 09:14:42;;;;;;;8.25;2.95;;;24.30;99.40;;;;;;5092773;28;20016;-56
2022/06/28 09:17:25;;;;;;;4.35;3.95;;;24.10;99.50;;;;;;5092725;28;20115;-54
2022/06/28 09:19:59;;;;;;;4.03;3.63;;;24.20;99.90;;;;;;5090536;28;20048;-54
2022/06/28 09:22:27;;;;;;;5.13;4.05;;;24.50;99.70;;;;;;5093005;28;20032;-56
2022/06/28 09:24:53;;;;;;;6.35;3.90;;;24.70;99.20;;;;;;5092683;28;20028;-55
2022/06/28 09:27:32;;;;;;;3.17;2.83;;;24.90;99.30;;;;;;5092572;28;20020;-55
2022/06/28 09:29:58;;;;;;;3.97;2.47;;;25.40;98.60;;;;;;5091442;28;20042;-54
2022/06/28 09:32:30;;;;;;;4.47;2.90;;;25.40;97.70;;;;;;5092504;28;20052;-56
2022/06/28 09:34:59;;;;;;;8.15;3.53;;;25.30;98.30;;;;;;5092527;28;20020;-55
2022/06/28 09:37:47;;;;;;;4.50;2.67;;;25.40;99.10;;;;;;5092537;28;20031;-56
2022/06/28 09:40:14;;;;;;;8.70;2.15;;;25.20;98.20;;;;;;5089222;28;20047;-56
2022/06/28 09:42:42;;;;;;;4.18;2.35;;;24.90;97.40;;;;;;5092352;28;20040;-55
2022/06/28 09:45:09;;;;;;;6.90;2.80;;;24.90;98.30;;;;;;5092339;28;20213;-56
2022/06/28 09:47:45;;;;;;;5.63;2.90;;;24.90;97.90;;;;;;5090632;28;20521;-57
2022/06/28 09:50:17;;;;;;;10.45;2.40;;;24.60;97.80;;;;;;5092144;28;20079;-56
2022/06/28 09:52:45;;;;;;;7.25;3.03;;;25.00;98.40;;;;;;5092063;28;20104;-53
2022/06/28 09:55:14;;;;;;;4.00;3.15;;;24.90;97.60;;;;;;5090524;28;20028;-56
2022/06/28 09:57:41;;;;;;;6.13;2.20;;;24.90;98.70;;;;;;5092161;28;20020;-55
2022/06/28 10:00:08;;;;;;;8.07;3.03;;;24.30;98.20;;;;;;5091877;28;20024;-55
2022/06/28 10:02:35;;;;;;;3.00;2.35;;;24.40;99.00;;;;;;5091985;28;20425;-56
2022/06/28 10:05:01;;;;;;;5.55;2.63;;;24.60;98.50;;;;;;5091703;28;20081;-57
2022/06/28 10:07:30;;;;;;;6.65;2.85;;;24.70;98.30;;;;;;5091815;28;20031;-57
2022/06/28 10:09:56;;;;;;;3.88;2.92;;;24.70;97.90;;;;;;5092089;28;20024;-56
2022/06/28 10:15:08;;;;;;;5.68;3.42;;;24.80;98.70;;;;;;5091765;28;20387;-55
2022/06/28 10:17:40;;;;;;;8.18;3.15;;;24.80;98.40;;;;;;5091677;28;20052;-55
2022/06/28 10:20:18;;;;;;;6.50;3.08;;;24.50;98.80;;;;;;5091611;28;20020;-54
2022/06/28 10:22:44;;;;;;;4.97;2.95;;;24.10;99.70;;;;;;5091775;28;20034;-55
2022/06/28 10:25:34;;;;;;;6.32;3.03;;;23.80;99.80;;;;;;5091385;28;20107;-55
2022/06/28 10:28:00;;;;;;;40.30;3.90;;;23.90;99.90;;;;;;5066640;28;20467;-54
2022/06/28 10:30:29;;;;;;;4.40;3.17;;;24.10;99.90;;;;;;5080424;28;20108;-52
2022/06/28 10:33:13;;;;;;;7.97;3.03;;;24.50;99.20;;;;;;5075429;28;20028;-56
2022/06/28 10:35:41;;;;;;;6.95;3.10;;;24.70;98.90;;;;;;5081082;28;20051;-55
2022/06/28 10:38:10;;;;;;;2.92;2.55;;;24.90;97.60;;;;;;5081305;28;20055;-55
2022/06/28 10:40:42;;;;;;;8.68;3.17;;;25.30;98.20;;;;;;5079205;28;20438;-56
2022/06/28 10:43:08;;;;;;;7.65;3.42;;;25.80;96.80;;;;;;5069719;28;20088;-53
2022/06/28 10:46:06;;;;;;;4.18;3.00;;;25.50;95.90;;;;;;5079577;28;20032;-55
2022/06/28 10:48:48;;;;;;;7.55;3.72;;;25.80;96.20;;;;;;5080515;28;20105;-55
2022/06/28 10:51:14;;;;;;;5.05;2.97;;;25.80;97.00;;;;;;5079873;28;20040;-56
2022/06/28 10:54:08;;;;;;;4.05;2.50;;;26.10;97.30;;;;;;5078999;28;20055;-55
2022/06/28 10:56:38;;;;;;;4.05;3.25;;;26.20;96.30;;;;;;5080593;28;20248;-55
2022/06/28 10:59:06;;;;;;;4.78;2.70;;;26.50;95.40;;;;;;5079203;28;20083;-54
2022/06/28 11:01:41;;;;;;;11.05;3.42;;;26.60;94.50;;;;;;5061337;28;20037;-54
2022/06/28 11:04:11;;;;;;;4.32;2.10;;;26.70;94.70;;;;;;5080278;28;20394;-56
2022/06/28 11:06:43;;;;;;;2.40;2.20;;;27.30;95.90;;;;;;5080004;28;20039;-55
2022/06/28 11:09:18;;;;;;;4.40;2.97;;;27.50;94.20;;;;;;5081014;28;20039;-52
2022/06/28 11:12:16;;;;;;;6.75;2.70;;;27.40;94.40;;;;;;5077890;28;20773;-57
2022/06/28 11:14:52;;;;;;;7.22;2.40;;;27.40;93.90;;;;;;5069382;28;20392;-56
2022/06/28 11:17:32;;;;;;;6.53;2.92;;;26.90;93.40;;;;;;5070135;28;20433;-55
2022/06/28 11:20:03;;;;;;;2.45;2.30;;;26.60;93.70;;;;;;5089720;28;20028;-55
2022/06/28 11:22:44;;;;;;;5.22;2.20;;;26.90;95.30;;;;;;5090773;28;20025;-55
2022/06/28 11:25:20;;;;;;;4.63;2.47;;;27.70;93.00;;;;;;5091277;28;20012;-55
2022/06/28 11:27:51;;;;;;;3.15;2.10;;;27.70;94.30;;;;;;5091189;28;20020;-56
2022/06/28 11:30:19;;;;;;;5.45;3.60;;;28.30;94.20;;;;;;5090787;28;20031;-55
2022/06/28 11:32:50;;;;;;;4.93;3.05;;;27.30;93.40;;;;;;5091166;28;20062;-56
2022/06/28 11:35:20;;;;;;;2.90;2.35;;;27.40;94.50;;;;;;5089743;28;20016;-54
2022/06/28 11:37:47;;;;;;;3.03;2.28;;;27.50;93.70;;;;;;5091085;28;20058;-54
2022/06/28 11:40:15;;;;;;;6.75;2.60;;;27.80;92.80;;;;;;5090855;28;20467;-53
2022/06/28 11:42:41;;;;;;;5.32;2.47;;;27.60;93.80;;;;;;5093306;28;20418;-54
2022/06/28 11:45:09;;;;;;;7.05;2.45;;;27.70;92.50;;;;;;5094660;28;20027;-56
2022/06/28 11:47:41;;;;;;;4.50;1.95;;;27.90;92.90;;;;;;5094491;28;20051;-55
2022/06/28 11:50:18;;;;;;;2.70;2.15;;;28.30;92.50;;;;;;5094810;28;20032;-53
2022/06/28 11:52:47;;;;;;;6.60;2.92;;;28.00;91.90;;;;;;5094184;28;20024;-55
2022/06/28 11:55:14;;;;;;;4.57;3.47;;;27.30;92.30;;;;;;5094473;28;20032;-53
2022/06/28 11:57:39;;;;;;;4.35;2.90;;;26.90;93.40;;;;;;5093036;28;20032;-56
2022/06/28 12:00:07;;;;;;;5.78;2.80;;;26.70;93.40;;;;;;5094395;28;20036;-55
2022/06/28 12:02:46;;;;;;;6.60;2.20;;;26.40;93.90;;;;;;5094154;28;20107;-55
2022/06/28 12:05:12;;;;;;;3.42;2.08;;;26.30;94.20;;;;;;5094114;28;20396;-56
2022/06/28 12:07:42;;;;;;;6.13;2.60;;;26.80;94.80;;;;;;5094144;28;20020;-56
2022/06/28 12:10:28;;;;;;;3.13;2.20;;;27.20;93.30;;;;;;5094132;28;20498;-56
2022/06/28 12:12:55;;;;;;;10.00;2.85;;;27.60;94.00;;;;;;5094163;28;20028;-55
2022/06/28 12:15:31;;;;;;;4.15;2.33;;;28.20;92.80;;;;;;5093816;28;20055;-56
2022/06/28 12:18:06;;;;;;;7.55;1.98;;;28.30;91.80;;;;;;5094193;28;20016;-54
2022/06/28 12:20:33;;;;;;;5.10;2.08;;;28.00;91.90;;;;;;5092286;28;20023;-56
2022/06/28 12:23:04;;;;;;;4.75;1.90;;;28.00;92.40;;;;;;5093786;28;20016;-54
2022/06/28 12:25:32;;;;;;;7.85;2.40;;;27.60;92.60;;;;;;5093740;28;20045;-55
2022/06/28 12:27:57;;;;;;;5.55;2.50;;;27.80;92.40;;;;;;5093700;28;20024;-56
2022/06/28 12:30:24;;;;;;;10.23;2.58;;;27.30;92.40;;;;;;5093555;28;20043;-56
2022/06/28 12:32:52;;;;;;;6.35;2.25;;;27.60;93.70;;;;;;5092539;28;20081;-55
2022/06/28 12:35:19;;;;;;;7.07;2.00;;;27.50;93.10;;;;;;5093687;28;20031;-55
2022/06/28 12:37:54;;;;;;;6.43;1.60;;;27.60;92.10;;;;;;5093716;28;20020;-56
2022/06/28 12:40:21;;;;;;;7.05;2.05;;;27.50;91.40;;;;;;5093039;28;20032;-54
2022/06/28 12:42:47;;;;;;;4.80;2.25;;;27.20;92.70;;;;;;5092416;28;20075;-56
2022/06/28 12:45:13;;;;;;;1.98;1.88;;;26.70;92.70;;;;;;5093572;28;20043;-55
2022/06/28 12:47:40;;;;;;;3.20;2.33;;;26.70;92.70;;;;;;5093443;28;20016;-54
2022/06/28 12:50:12;;;;;;;3.17;1.83;;;26.70;92.70;;;;;;5093638;28;20035;-55
2022/06/28 12:52:42;;;;;;;4.77;1.90;;;26.70;93.20;;;;;;5093468;28;20469;-54
2022/06/28 12:55:10;;;;;;;3.47;2.00;;;26.50;93.30;;;;;;5093256;28;20290;-55
2022/06/28 12:57:37;;;;;;;2.88;1.65;;;26.60;93.10;;;;;;5093219;28;20039;-53
2022/06/28 13:00:09;;;;;;;2.28;1.85;;;26.30;93.60;;;;;;5093090;28;20016;-55
2022/06/28 13:02:35;;;;;;;3.65;1.88;;;26.40;93.20;;;;;;5092691;28;20402;-57